createdAt,value
2018-02-07T00:02:27.190Z,88.25
2018-02-07T00:04:54.855Z,88.22
2018-02-07T00:07:22.531Z,88.62
2018-02-07T00:09:50.085Z,88.26
2018-02-07T00:12:17.665Z,88.57
2018-02-07T00:14:45.233Z,88.32
2018-02-07T00:17:12.825Z,88.09
2018-02-07T00:19:40.396Z,88.14
2018-02-07T00:22:07.953Z,88.33
2018-02-07T00:24:35.578Z,88.29
2018-02-07T00:27:03.126Z,88.71
2018-02-07T00:29:30.676Z,88.50
2018-02-07T00:31:58.358Z,89.17
2018-02-07T00:34:25.934Z,89.29
2018-02-07T00:36:53.476Z,89.21
2018-02-07T00:39:21.030Z,89.10
2018-02-07T00:41:48.603Z,89.24
2018-02-07T00:44:16.576Z,89.36
2018-02-07T00:46:44.114Z,89.49
2018-02-07T00:49:11.682Z,89.92
2018-02-07T00:51:39.243Z,89.64
2018-02-07T00:54:06.755Z,89.73
2018-02-07T00:56:34.722Z,89.67
2018-02-07T00:59:02.298Z,89.74
2018-02-07T01:01:29.863Z,90.05
2018-02-07T01:03:57.635Z,89.66
2018-02-07T01:06:25.529Z,89.75
2018-02-07T01:08:53.072Z,90.04
2018-02-07T01:11:20.678Z,90.14
2018-02-07T01:13:48.336Z,89.96
2018-02-07T01:16:15.880Z,89.96
2018-02-07T01:18:43.442Z,90.12
2018-02-07T01:21:10.976Z,90.10
2018-02-07T01:23:38.570Z,89.92
2018-02-07T01:26:06.115Z,90.33
2018-02-07T01:28:33.691Z,90.29
2018-02-07T01:31:01.275Z,90.71
2018-02-07T01:33:28.860Z,90.91
2018-02-07T01:35:56.402Z,91.32
2018-02-07T01:38:23.955Z,90.96
2018-02-07T01:40:51.535Z,91.18
2018-02-07T01:43:19.104Z,91.11
2018-02-07T01:45:46.618Z,91.48
2018-02-07T01:48:14.577Z,91.38
2018-02-07T01:50:42.134Z,91.40
2018-02-07T01:53:09.677Z,91.36
2018-02-07T01:55:37.252Z,91.28
2018-02-07T01:58:04.776Z,91.42
2018-02-07T02:00:32.356Z,91.57
2018-02-07T02:02:59.904Z,91.45
2018-02-07T02:05:27.807Z,91.31
2018-02-07T02:07:55.375Z,91.79
2018-02-07T02:10:22.932Z,91.96
2018-02-07T02:12:54.338Z,91.75
2018-02-07T02:15:21.873Z,91.97
2018-02-07T02:17:49.419Z,92.12
2018-02-07T02:20:17.005Z,92.38
2018-02-07T02:22:44.557Z,92.09
2018-02-07T02:25:12.079Z,92.56
2018-02-07T02:27:39.682Z,92.19
2018-02-07T02:30:07.323Z,92.17
2018-02-07T02:32:34.875Z,92.37
2018-02-07T02:35:02.433Z,92.34
2018-02-07T02:37:29.987Z,92.51
2018-02-07T02:39:57.558Z,92.74
2018-02-07T02:42:25.090Z,92.72
2018-02-07T02:44:52.645Z,92.92
2018-02-07T02:47:20.207Z,92.63
2018-02-07T02:49:47.780Z,92.70
2018-02-07T02:52:15.350Z,92.66
2018-02-07T02:54:42.932Z,92.55
2018-02-07T02:57:10.504Z,92.37
2018-02-07T02:59:38.042Z,92.23
2018-02-07T03:02:05.646Z,92.41
2018-02-07T03:04:33.216Z,92.44
2018-02-07T03:07:00.770Z,92.57
2018-02-07T03:09:28.331Z,92.32
2018-02-07T03:11:55.911Z,92.08
2018-02-07T03:14:23.515Z,92.32
2018-02-07T03:16:51.081Z,92.34
2018-02-07T03:19:18.652Z,92.27
2018-02-07T03:21:46.219Z,92.77
2018-02-07T03:24:13.738Z,92.46
2018-02-07T03:26:41.319Z,92.41
2018-02-07T03:29:08.946Z,92.65
2018-02-07T03:31:36.473Z,92.48
2018-02-07T03:34:04.080Z,93.04
2018-02-07T03:36:31.626Z,93.38
2018-02-07T03:38:59.143Z,93.11
2018-02-07T03:41:26.692Z,93.21
2018-02-07T03:43:54.264Z,93.30
2018-02-07T03:46:21.854Z,93.56
2018-02-07T03:48:49.478Z,93.46
2018-02-07T03:51:17.029Z,93.68
2018-02-07T03:53:44.576Z,93.95
2018-02-07T03:56:12.255Z,94.64
2018-02-07T03:58:39.858Z,94.23
2018-02-07T04:01:07.466Z,94.23
2018-02-07T04:03:35.010Z,94.31
2018-02-07T04:06:02.648Z,93.47
2018-02-07T04:08:30.274Z,93.23
2018-02-07T04:10:57.823Z,92.46
2018-02-07T04:13:25.344Z,92.26
2018-02-07T04:15:52.891Z,92.76
2018-02-07T04:18:20.660Z,92.90
2018-02-07T04:20:48.608Z,92.84
2018-02-07T04:23:16.210Z,92.74
2018-02-07T04:25:43.737Z,92.27
2018-02-07T04:28:11.724Z,92.83
2018-02-07T04:30:39.275Z,93.07
2018-02-07T04:33:06.799Z,92.84
2018-02-07T04:35:34.402Z,92.77
2018-02-07T04:38:01.951Z,92.74
2018-02-07T04:40:29.499Z,92.43
2018-02-07T04:42:57.058Z,92.36
2018-02-07T04:45:24.603Z,92.19
2018-02-07T04:47:52.211Z,92.33
2018-02-07T04:50:19.780Z,92.52
2018-02-07T04:52:47.316Z,92.53
2018-02-07T04:55:14.925Z,92.05
2018-02-07T04:57:42.494Z,91.87
2018-02-07T05:00:10.119Z,91.77
2018-02-07T05:02:37.670Z,91.69
2018-02-07T05:05:05.227Z,91.65
2018-02-07T05:07:32.835Z,91.47
2018-02-07T05:10:00.403Z,91.86
2018-02-07T05:12:27.964Z,91.55
2018-02-07T05:14:55.617Z,91.21
2018-02-07T05:17:23.165Z,91.57
2018-02-07T05:19:51.073Z,91.45
2018-02-07T05:22:18.640Z,91.73
2018-02-07T05:24:46.212Z,91.65
2018-02-07T05:27:13.792Z,91.47
2018-02-07T05:29:41.343Z,91.00
2018-02-07T05:32:08.881Z,91.12
2018-02-07T05:34:36.435Z,91.11
2018-02-07T05:37:03.974Z,91.84
2018-02-07T05:39:31.641Z,91.89
2018-02-07T05:41:59.209Z,91.55
2018-02-07T05:44:26.750Z,91.47
2018-02-07T05:46:55.012Z,91.24
2018-02-07T05:49:22.607Z,91.38
2018-02-07T05:51:50.174Z,91.17
2018-02-07T05:54:19.212Z,91.31
2018-02-07T05:56:46.803Z,90.83
2018-02-07T05:59:14.349Z,90.74
2018-02-07T06:01:41.904Z,90.50
2018-02-07T06:04:09.530Z,90.64
2018-02-07T06:06:37.060Z,90.15
2018-02-07T06:09:04.633Z,90.56
2018-02-07T06:11:32.352Z,90.12
2018-02-07T06:13:59.898Z,90.38
2018-02-07T06:16:27.474Z,89.55
2018-02-07T06:18:55.128Z,89.17
2018-02-07T06:21:22.692Z,89.01
2018-02-07T06:23:50.243Z,88.46
2018-02-07T06:26:17.788Z,88.33
2018-02-07T06:28:45.804Z,88.51
2018-02-07T06:31:13.321Z,88.12
2018-02-07T06:33:40.840Z,87.75
2018-02-07T06:36:08.564Z,87.56
2018-02-07T06:38:36.103Z,87.67
2018-02-07T06:41:03.639Z,88.19
2018-02-07T06:43:31.183Z,88.21
2018-02-07T06:45:58.731Z,88.27
2018-02-07T06:48:26.286Z,88.09
2018-02-07T06:50:53.808Z,88.42
2018-02-07T06:53:21.402Z,88.12
2018-02-07T06:55:48.922Z,87.70
2018-02-07T06:58:16.532Z,87.79
2018-02-07T07:00:44.983Z,88.25
2018-02-07T07:03:12.525Z,87.81
2018-02-07T07:05:40.080Z,87.63
2018-02-07T07:08:07.600Z,87.53
2018-02-07T07:10:35.210Z,87.46
2018-02-07T07:13:02.783Z,87.53
2018-02-07T07:15:30.395Z,87.48
2018-02-07T07:17:57.953Z,87.51
2018-02-07T07:20:25.855Z,87.51
2018-02-07T07:22:53.391Z,87.30
2018-02-07T07:25:20.938Z,87.07
2018-02-07T07:27:48.517Z,86.53
2018-02-07T07:30:16.082Z,86.14
2018-02-07T07:32:44.039Z,86.00
2018-02-07T07:35:11.555Z,85.68
2018-02-07T07:37:39.137Z,85.58
2018-02-07T07:40:06.731Z,85.62
2018-02-07T07:42:34.249Z,85.39
2018-02-07T07:45:01.791Z,85.43
2018-02-07T07:47:29.690Z,85.63
2018-02-07T07:49:57.258Z,85.43
2018-02-07T07:52:24.770Z,85.44
2018-02-07T07:54:52.363Z,85.14
2018-02-07T07:57:19.887Z,84.32
2018-02-07T07:59:47.399Z,84.04
2018-02-07T08:02:14.995Z,83.87
2018-02-07T08:04:42.565Z,83.33
2018-02-07T08:07:10.092Z,83.58
2018-02-07T08:09:37.693Z,82.68
2018-02-07T08:12:05.221Z,82.50
2018-02-07T08:14:32.770Z,82.41
2018-02-07T08:17:00.348Z,82.37
2018-02-07T08:19:27.896Z,81.88
2018-02-07T08:21:55.454Z,81.87
2018-02-07T08:24:23.025Z,81.61
2018-02-07T08:26:50.552Z,81.65
2018-02-07T08:29:18.143Z,81.68
2018-02-07T08:31:45.682Z,81.86
2018-02-07T08:34:13.228Z,81.61
2018-02-07T08:36:40.874Z,81.71
2018-02-07T08:39:08.434Z,81.76
2018-02-07T08:41:35.952Z,81.73
2018-02-07T08:44:03.536Z,81.82
2018-02-07T08:46:31.187Z,81.69
2018-02-07T08:48:58.765Z,81.75
2018-02-07T08:51:26.400Z,81.29
2018-02-07T08:53:53.941Z,81.26
2018-02-07T08:56:21.514Z,81.65
2018-02-07T08:58:49.036Z,81.61
2018-02-07T09:01:16.936Z,81.35
2018-02-07T09:03:44.473Z,81.26
2018-02-07T09:06:12.018Z,80.55
2018-02-07T09:08:39.608Z,80.81
2018-02-07T09:11:07.131Z,80.42
2018-02-07T09:13:34.684Z,80.40
2018-02-07T09:16:02.679Z,80.09
2018-02-07T09:18:30.351Z,79.81
2018-02-07T09:20:57.875Z,79.95
2018-02-07T09:23:25.432Z,79.35
2018-02-07T09:25:52.951Z,79.07
2018-02-07T09:28:20.499Z,78.36
2018-02-07T09:30:48.054Z,78.16
2018-02-07T09:33:15.596Z,77.79
2018-02-07T09:35:43.255Z,77.46
2018-02-07T09:38:10.791Z,77.11
2018-02-07T09:40:38.407Z,76.79
2018-02-07T09:43:05.932Z,75.92
2018-02-07T09:45:33.549Z,75.74
2018-02-07T09:48:01.543Z,76.04
2018-02-07T09:50:29.102Z,74.88
2018-02-07T09:52:56.636Z,75.26
2018-02-07T09:55:24.228Z,75.20
2018-02-07T09:57:51.776Z,74.16
2018-02-07T10:00:19.331Z,74.57
2018-02-07T10:02:47.312Z,74.63
2018-02-07T10:05:14.831Z,74.46
2018-02-07T10:07:42.359Z,73.99
2018-02-07T10:10:09.931Z,73.27
2018-02-07T10:12:37.471Z,72.74
2018-02-07T10:15:05.059Z,71.71
2018-02-07T10:17:32.716Z,71.16
2018-02-07T10:20:00.266Z,71.43
2018-02-07T10:22:27.855Z,70.08
2018-02-07T10:24:55.392Z,70.60
2018-02-07T10:27:23.010Z,70.77
2018-02-07T10:29:50.547Z,70.85
2018-02-07T10:32:18.086Z,70.58
2018-02-07T10:34:45.655Z,70.43
2018-02-07T10:37:13.292Z,70.57
2018-02-07T10:39:40.869Z,69.73
2018-02-07T10:42:08.387Z,69.50
2018-02-07T10:44:35.930Z,68.75
2018-02-07T10:47:03.870Z,68.54
2018-02-07T10:49:31.409Z,68.68
2018-02-07T10:51:58.979Z,68.67
2018-02-07T10:54:26.545Z,68.40
2018-02-07T10:56:54.121Z,69.40
2018-02-07T10:59:21.710Z,68.22
2018-02-07T11:01:49.251Z,68.01
2018-02-07T11:04:16.787Z,67.61
2018-02-07T11:06:44.332Z,67.30
2018-02-07T11:09:11.848Z,66.90
2018-02-07T11:11:39.423Z,65.97
2018-02-07T11:14:06.993Z,66.18
2018-02-07T11:16:34.574Z,66.83
2018-02-07T11:19:02.759Z,66.80
2018-02-07T11:21:30.389Z,66.80
2018-02-07T11:23:57.979Z,64.63
2018-02-07T11:26:25.518Z,64.91
2018-02-07T11:28:53.091Z,65.68
2018-02-07T11:31:20.618Z,65.08
2018-02-07T11:33:48.211Z,63.27
2018-02-07T11:36:15.767Z,62.81
2018-02-07T11:38:43.270Z,62.76
2018-02-07T11:41:10.846Z,63.47
2018-02-07T11:43:38.486Z,63.10
2018-02-07T11:46:06.023Z,61.67
2018-02-07T11:48:33.585Z,61.46
2018-02-07T11:51:01.115Z,62.05
2018-02-07T11:53:28.671Z,62.87
2018-02-07T11:55:56.209Z,61.63
2018-02-07T11:58:23.750Z,61.47
2018-02-07T12:00:51.342Z,62.03
2018-02-07T12:03:18.869Z,61.68
2018-02-07T12:05:46.411Z,62.18
2018-02-07T12:08:13.978Z,62.23
2018-02-07T12:10:41.531Z,62.52
2018-02-07T12:13:09.077Z,57.64
2018-02-07T12:15:36.648Z,58.16
2018-02-07T12:18:04.191Z,58.83
2018-02-07T12:20:31.736Z,58.24
2018-02-07T12:22:59.289Z,59.72
2018-02-07T12:25:26.823Z,57.85
2018-02-07T12:27:54.444Z,56.54
2018-02-07T12:30:21.977Z,54.07
2018-02-07T12:32:49.532Z,54.25
2018-02-07T12:35:17.087Z,55.79
2018-02-07T12:37:44.640Z,55.54
2018-02-07T12:40:12.255Z,54.75
2018-02-07T12:42:39.791Z,56.88
2018-02-07T12:45:07.342Z,57.26
2018-02-07T12:47:35.320Z,57.08
2018-02-07T12:50:02.866Z,57.67
2018-02-07T12:52:30.429Z,56.20
2018-02-07T12:54:58.025Z,57.31
2018-02-07T12:57:25.579Z,51.95
2018-02-07T12:59:53.150Z,52.35
2018-02-07T13:02:20.700Z,52.36
2018-02-07T13:04:48.236Z,51.56
2018-02-07T13:07:15.748Z,52.21
2018-02-07T13:09:43.343Z,51.63
2018-02-07T13:12:10.883Z,52.81
2018-02-07T13:14:38.400Z,51.63
2018-02-07T13:17:05.940Z,50.78
2018-02-07T13:19:33.459Z,50.69
2018-02-07T13:22:01.030Z,52.38
2018-02-07T13:24:28.567Z,51.85
2018-02-07T13:26:56.174Z,53.27
2018-02-07T13:29:23.725Z,53.54
2018-02-07T13:31:51.284Z,53.15
2018-02-07T13:34:18.842Z,53.58
2018-02-07T13:36:46.411Z,52.00
2018-02-07T13:39:13.978Z,51.13
2018-02-07T13:41:41.566Z,50.62
2018-02-07T13:44:09.119Z,51.12
2018-02-07T13:46:36.634Z,50.67
2018-02-07T13:49:04.193Z,51.97
2018-02-07T13:51:31.718Z,51.88
2018-02-07T13:53:59.279Z,50.94
2018-02-07T13:56:26.792Z,48.73
2018-02-07T13:58:54.370Z,49.37
2018-02-07T14:01:21.886Z,49.18
2018-02-07T14:03:49.451Z,50.67
2018-02-07T14:06:17.042Z,51.13
2018-02-07T14:08:44.591Z,51.94
2018-02-07T14:11:12.104Z,52.39
2018-02-07T14:13:39.676Z,50.63
2018-02-07T14:16:07.211Z,51.16
2018-02-07T14:18:34.746Z,51.85
2018-02-07T14:21:02.671Z,51.76
2018-02-07T14:23:30.192Z,51.89
2018-02-07T14:25:57.735Z,52.35
2018-02-07T14:28:25.292Z,51.44
2018-02-07T14:30:52.921Z,51.48
2018-02-07T14:33:20.435Z,51.59
2018-02-07T14:35:47.967Z,51.34
2018-02-07T14:38:15.524Z,51.38
2018-02-07T14:40:43.099Z,51.33
2018-02-07T14:43:10.659Z,52.07
2018-02-07T14:45:38.199Z,51.89
2018-02-07T14:48:05.786Z,52.11
2018-02-07T14:50:33.327Z,52.55
2018-02-07T14:53:00.880Z,50.76
2018-02-07T14:55:28.423Z,51.53
2018-02-07T14:57:55.947Z,50.14
2018-02-07T15:00:23.515Z,50.94
2018-02-07T15:02:51.063Z,51.32
2018-02-07T15:05:18.640Z,50.97
2018-02-07T15:07:46.199Z,51.09
2018-02-07T15:10:13.744Z,51.94
2018-02-07T15:12:41.305Z,52.21
2018-02-07T15:15:08.850Z,53.10
2018-02-07T15:17:36.411Z,53.13
2018-02-07T15:20:03.939Z,51.34
2018-02-07T15:22:31.945Z,51.98
2018-02-07T15:24:59.471Z,52.16
2018-02-07T15:27:27.024Z,52.78
2018-02-07T15:29:54.618Z,52.94
2018-02-07T15:32:22.260Z,53.62
2018-02-07T15:34:49.778Z,52.51
2018-02-07T15:37:17.744Z,52.35
2018-02-07T15:39:45.303Z,53.31
2018-02-07T15:42:12.854Z,53.75
2018-02-07T15:44:40.399Z,52.63
2018-02-07T15:47:07.931Z,53.65
2018-02-07T15:49:35.532Z,53.71
2018-02-07T15:52:03.048Z,54.58
2018-02-07T15:54:30.594Z,54.86
2018-02-07T15:56:58.524Z,54.89
2018-02-07T15:59:26.047Z,54.63
2018-02-07T16:01:53.565Z,54.87
2018-02-07T16:04:21.175Z,55.31
2018-02-07T16:06:48.693Z,55.80
2018-02-07T16:09:16.241Z,56.47
2018-02-07T16:11:43.887Z,57.38
2018-02-07T16:14:11.452Z,57.82
2018-02-07T16:16:39.023Z,58.30
2018-02-07T16:19:06.610Z,58.79
2018-02-07T16:21:34.188Z,59.44
2018-02-07T16:24:01.720Z,58.82
2018-02-07T16:26:29.259Z,59.72
2018-02-07T16:28:56.832Z,59.53
2018-02-07T16:31:24.434Z,59.90
2018-02-07T16:33:51.984Z,60.05
2018-02-07T16:36:19.562Z,60.20
2018-02-07T16:38:47.157Z,60.45
2018-02-07T16:41:14.702Z,61.86
2018-02-07T16:43:42.257Z,62.37
2018-02-07T16:46:10.177Z,63.06
2018-02-07T16:48:37.723Z,63.67
2018-02-07T16:51:05.247Z,64.81
2018-02-07T16:53:32.812Z,66.41
2018-02-07T16:56:00.422Z,65.65
2018-02-07T16:58:28.449Z,65.77
2018-02-07T17:00:55.981Z,66.31
2018-02-07T17:03:23.586Z,66.63
2018-02-07T17:05:51.182Z,67.26
2018-02-07T17:08:18.740Z,67.66
2018-02-07T17:10:46.290Z,68.16
2018-02-07T17:13:13.924Z,67.28
2018-02-07T17:15:41.463Z,67.02
2018-02-07T17:18:09.058Z,68.09
2018-02-07T17:20:37.034Z,68.83
2018-02-07T17:23:04.577Z,67.74
2018-02-07T17:25:32.136Z,68.76
2018-02-07T17:28:00.552Z,69.35
2018-02-07T17:30:28.102Z,70.12
2018-02-07T17:32:55.646Z,71.07
2018-02-07T17:35:23.262Z,72.10
2018-02-07T17:37:50.828Z,73.37
2018-02-07T17:40:18.345Z,73.97
2018-02-07T17:42:45.941Z,73.85
2018-02-07T17:45:13.499Z,73.28
2018-02-07T17:47:41.088Z,73.95
2018-02-07T17:50:08.654Z,74.93
2018-02-07T17:52:36.280Z,75.04
2018-02-07T17:55:03.811Z,75.17
2018-02-07T17:57:31.360Z,75.10
2018-02-07T17:59:58.965Z,75.24
2018-02-07T18:02:26.487Z,75.49
2018-02-07T18:04:54.049Z,75.85
2018-02-07T18:07:21.635Z,76.61
2018-02-07T18:09:49.218Z,75.18
2018-02-07T18:12:16.756Z,74.69
2018-02-07T18:14:44.279Z,75.33
2018-02-07T18:17:11.924Z,76.67
2018-02-07T18:19:39.482Z,77.51
2018-02-07T18:22:07.068Z,78.18
2018-02-07T18:24:34.717Z,78.04
2018-02-07T18:27:02.239Z,77.21
2018-02-07T18:29:29.824Z,77.28
2018-02-07T18:31:57.427Z,77.73
2018-02-07T18:34:24.956Z,78.52
2018-02-07T18:36:52.810Z,79.09
2018-02-07T18:39:20.734Z,79.38
2018-02-07T18:41:48.505Z,79.49
2018-02-07T18:44:16.158Z,79.18
2018-02-07T18:46:43.750Z,79.04
2018-02-07T18:49:11.331Z,79.41
2018-02-07T18:51:38.930Z,79.87
2018-02-07T18:54:06.535Z,80.15
2018-02-07T18:56:34.100Z,80.22
2018-02-07T18:59:01.702Z,80.14
2018-02-07T19:01:29.231Z,80.09
2018-02-07T19:03:57.273Z,80.13
2018-02-07T19:06:24.835Z,80.15
2018-02-07T19:08:52.395Z,80.57
2018-02-07T19:11:20.017Z,80.90
2018-02-07T19:13:47.582Z,81.22
2018-02-07T19:16:15.162Z,81.56
2018-02-07T19:18:43.291Z,81.90
2018-02-07T19:21:10.839Z,82.11
2018-02-07T19:23:38.382Z,82.59
2018-02-07T19:26:05.955Z,82.75
2018-02-07T19:28:33.507Z,82.88
2018-02-07T19:31:01.102Z,82.55
2018-02-07T19:33:28.639Z,82.66
2018-02-07T19:35:56.292Z,83.27
2018-02-07T19:38:24.338Z,83.47
2018-02-07T19:40:52.995Z,84.05
2018-02-07T19:43:20.527Z,84.46
2018-02-07T19:45:48.961Z,84.66
2018-02-07T19:48:16.530Z,84.87
2018-02-07T19:50:44.048Z,85.18
2018-02-07T19:53:11.653Z,85.58
2018-02-07T19:55:40.245Z,86.05
2018-02-07T19:58:08.067Z,86.33
2018-02-07T20:00:35.726Z,86.47
2018-02-07T20:03:03.309Z,86.41
2018-02-07T20:05:31.331Z,86.41
2018-02-07T20:07:58.951Z,86.55
2018-02-07T20:10:26.942Z,86.78
2018-02-07T20:12:54.546Z,87.06
2018-02-07T20:15:22.312Z,87.39
2018-02-07T20:17:51.233Z,87.34
2018-02-07T20:20:18.775Z,87.48
2018-02-07T20:22:46.444Z,87.66
2018-02-07T20:25:14.533Z,87.92
2018-02-07T20:27:42.126Z,88.20
2018-02-07T20:30:09.824Z,88.54
2018-02-07T20:32:37.457Z,88.22
2018-02-07T20:35:05.003Z,87.57
2018-02-07T20:37:33.018Z,88.20
2018-02-07T20:40:00.552Z,88.65
2018-02-07T20:42:28.078Z,88.04
2018-02-07T20:44:55.714Z,88.24
2018-02-07T20:47:23.291Z,88.42
2018-02-07T20:49:50.902Z,88.48
2018-02-07T20:52:18.479Z,88.63
2018-02-07T20:54:46.012Z,88.83
2018-02-07T20:57:13.586Z,88.47
2018-02-07T20:59:41.148Z,88.75
2018-02-07T21:02:08.711Z,89.09
2018-02-07T21:04:36.274Z,89.32
2018-02-07T21:07:03.850Z,89.53
2018-02-07T21:09:31.446Z,89.96
2018-02-07T21:11:59.075Z,90.45
2018-02-07T21:14:26.599Z,90.68
2018-02-07T21:16:54.163Z,90.66
2018-02-07T21:19:21.774Z,90.82
2018-02-07T21:21:49.344Z,90.09
2018-02-07T21:24:16.906Z,88.41
2018-02-07T21:26:44.476Z,88.81
2018-02-07T21:29:12.078Z,89.47
2018-02-07T21:31:39.612Z,89.83
2018-02-07T21:34:07.129Z,90.45
2018-02-07T21:36:34.678Z,90.85
2018-02-07T21:39:02.225Z,90.83
2018-02-07T21:41:29.818Z,91.17
2018-02-07T21:43:57.404Z,91.31
2018-02-07T21:46:24.961Z,91.36
2018-02-07T21:48:52.531Z,91.49
2018-02-07T21:51:20.074Z,91.24
2018-02-07T21:53:47.728Z,91.61
2018-02-07T21:56:15.251Z,91.39
2018-02-07T21:58:42.790Z,90.87
2018-02-07T22:01:10.392Z,91.33
2018-02-07T22:03:37.948Z,92.02
2018-02-07T22:06:05.486Z,92.29
2018-02-07T22:08:33.112Z,92.53
2018-02-07T22:11:00.675Z,92.42
2018-02-07T22:13:28.295Z,92.50
2018-02-07T22:15:55.844Z,92.46
2018-02-07T22:18:23.427Z,92.07
2018-02-07T22:20:50.995Z,92.25
2018-02-07T22:23:18.642Z,92.27
2018-02-07T22:25:46.704Z,92.37
2018-02-07T22:28:14.247Z,92.34
2018-02-07T22:30:41.786Z,92.11
2018-02-07T22:33:09.382Z,92.35
2018-02-07T22:35:36.907Z,92.35
2018-02-07T22:38:04.423Z,92.40
2018-02-07T22:40:31.988Z,92.42
2018-02-07T22:42:59.555Z,92.18
2018-02-07T22:45:27.074Z,92.01
2018-02-07T22:47:54.634Z,92.60
2018-02-07T22:50:22.151Z,92.26
2018-02-07T22:52:49.699Z,92.00
2018-02-07T22:55:17.283Z,92.35
2018-02-07T22:57:44.875Z,92.45
2018-02-07T23:00:12.461Z,92.33
2018-02-07T23:02:39.985Z,92.19
2018-02-07T23:05:07.536Z,92.06
2018-02-07T23:07:35.089Z,92.10
2018-02-07T23:10:02.632Z,92.35
2018-02-07T23:12:30.215Z,92.20
2018-02-07T23:14:58.226Z,92.26
2018-02-07T23:17:25.772Z,92.20
2018-02-07T23:19:53.409Z,92.61
2018-02-07T23:22:20.955Z,92.38
2018-02-07T23:24:48.480Z,92.67
2018-02-07T23:27:16.080Z,92.43
2018-02-07T23:29:43.630Z,92.50
2018-02-07T23:32:11.170Z,93.15
2018-02-07T23:34:38.725Z,92.68
2018-02-07T23:37:06.271Z,92.90
2018-02-07T23:39:33.867Z,93.59
2018-02-07T23:42:01.389Z,92.48
2018-02-07T23:44:28.915Z,92.22
2018-02-07T23:46:56.475Z,92.66
2018-02-07T23:49:24.043Z,92.36
2018-02-07T23:51:51.696Z,92.65
2018-02-07T23:54:19.212Z,92.77
2018-02-07T23:56:46.774Z,92.92
2018-02-07T23:59:14.338Z,92.93
